Time;durP1;ratioP1;P1;durP2;ratioP2;P2;SDS_P1;SDS_P2;PMS_P1;PMS_P2;Temp;Humidity;BMP_temperature;BMP_pressure;BME280_temperature;BME280_humidity;BME280_pressure;Samples;Min_cycle;Max_cycle;Signal;HPM_P1;HPM_P2
2021/03/04 00:03:47;;;;;;;13.60;6.20;;;;;;;4.13;100.00;99771.29;3895267;75;400201;-78
2021/03/04 00:09:08;;;;;;;6.30;5.80;;;;;;;4.16;100.00;99771.98;3894690;75;396380;-78
2021/03/04 00:14:30;;;;;;;19.60;7.70;;;;;;;4.14;100.00;99775.60;3893480;75;389825;-77
2021/03/04 00:19:52;;;;;;;7.97;5.60;;;;;;;4.37;100.00;99765.83;3895599;75;391904;-78
2021/03/04 00:25:14;;;;;;;8.87;6.90;;;;;;;4.18;100.00;99762.09;3895475;75;389910;-78
2021/03/04 00:30:35;;;;;;;13.33;7.10;;;;;;;4.42;100.00;99763.45;3894962;75;400285;-77
2021/03/04 00:35:57;;;;;;;10.40;5.70;;;;;;;4.22;100.00;99756.22;3895556;74;394019;-77
2021/03/04 00:41:18;;;;;;;7.90;5.43;;;;;;;4.20;100.00;99744.28;3895624;75;396018;-78
2021/03/04 00:46:39;;;;;;;6.90;6.20;;;;;;;4.13;100.00;99733.17;3895657;75;389886;-77
2021/03/04 00:52:01;;;;;;;12.73;6.00;;;;;;;4.29;100.00;99727.25;3895782;75;396329;-78
2021/03/04 00:57:22;;;;;;;7.27;6.40;;;;;;;4.27;100.00;99725.47;3895676;75;393290;-77
2021/03/04 01:02:43;;;;;;;10.43;5.80;;;;;;;4.33;100.00;99723.28;3895155;75;394093;-78
2021/03/04 01:08:06;;;;;;;12.97;7.13;;;;;;;4.36;100.00;99715.80;3888300;75;389770;-77
2021/03/04 01:13:27;;;;;;;10.57;5.30;;;;;;;4.39;100.00;99719.98;3883343;75;396170;-77
2021/03/04 01:18:49;;;;;;;9.13;7.83;;;;;;;4.58;100.00;99704.39;3884402;75;389814;-77
2021/03/04 01:24:10;;;;;;;6.23;5.63;;;;;;;4.60;100.00;99705.66;3883463;75;390820;-77
2021/03/04 01:29:31;;;;;;;17.83;5.07;;;;;;;4.65;100.00;99716.85;3883315;75;388878;-77
2021/03/04 01:34:52;;;;;;;13.10;7.97;;;;;;;4.44;100.00;99707.48;3883162;75;400201;-77
2021/03/04 01:40:16;;;;;;;8.60;6.87;;;;;;;4.49;100.00;99707.27;3883802;75;398152;-77
2021/03/04 01:45:37;;;;;;;8.23;5.33;;;;;;;4.43;100.00;99698.30;3883845;75;398205;-78
2021/03/04 01:50:59;;;;;;;10.20;6.27;;;;;;;4.69;100.00;99702.20;3883618;75;394255;-77
2021/03/04 01:56:20;;;;;;;11.30;5.40;;;;;;;4.43;100.00;99677.87;3883592;75;396160;-77
2021/03/04 02:02:14;;;;;;;8.90;7.20;;;;;;;4.44;100.00;99671.29;3883059;75;396366;-78
2021/03/04 02:07:45;;;;;;;10.30;6.83;;;;;;;4.52;100.00;99680.70;3888071;75;394433;-77
2021/03/04 02:13:24;;;;;;;13.53;8.13;;;;;;;4.50;100.00;99665.27;3895201;75;394000;-78
2021/03/04 02:18:48;;;;;;;14.43;8.13;;;;;;;4.46;100.00;99655.40;3894885;75;396092;-78
2021/03/04 02:24:15;;;;;;;27.33;7.23;;;;;;;4.53;100.00;99656.38;3895066;75;400248;-78
2021/03/04 02:29:42;;;;;;;10.20;6.00;;;;;;;4.48;100.00;99649.05;3895054;75;396370;-78
2021/03/04 02:35:09;;;;;;;10.83;6.83;;;;;;;4.48;100.00;99647.69;3894968;75;394281;-78
2021/03/04 02:40:33;;;;;;;7.13;5.60;;;;;;;4.52;100.00;99643.92;3895290;75;394063;-78
2021/03/04 02:45:55;;;;;;;7.30;6.13;;;;;;;4.52;100.00;99640.39;3895575;75;389885;-78
2021/03/04 02:51:17;;;;;;;15.40;7.70;;;;;;;4.52;100.00;99630.30;3894697;75;394053;-78
2021/03/04 02:56:39;;;;;;;5.70;5.07;;;;;;;4.48;100.00;99623.94;3894849;75;396419;-78
2021/03/04 03:02:03;;;;;;;26.80;7.37;;;;;;;4.44;100.00;99632.57;3894636;75;394146;-78
2021/03/04 03:07:26;;;;;;;15.63;7.10;;;;;;;4.37;100.00;99617.39;3893721;75;396329;-78
2021/03/04 03:12:49;;;;;;;16.20;7.40;;;;;;;4.31;100.00;99615.27;3888562;75;400309;-78
2021/03/04 03:18:11;;;;;;;9.23;4.80;;;;;;;4.26;100.00;99596.44;3889879;75;391982;-78
2021/03/04 03:23:33;;;;;;;12.93;4.73;;;;;;;4.24;100.00;99607.69;3889055;75;396333;-77
2021/03/04 03:28:54;;;;;;;9.10;4.43;;;;;;;4.18;100.00;99600.09;3889708;75;396487;-78
2021/03/04 03:34:15;;;;;;;13.23;7.50;;;;;;;4.09;100.00;99589.35;3889562;75;396078;-78
2021/03/04 03:39:38;;;;;;;10.10;6.53;;;;;;;4.01;100.00;99588.92;3889644;75;392956;-78
2021/03/04 03:45:00;;;;;;;17.80;7.00;;;;;;;3.98;100.00;99588.23;3889031;75;394026;-78
2021/03/04 03:50:22;;;;;;;5.33;3.90;;;;;;;3.86;100.00;99588.05;3889280;75;396350;-78
2021/03/04 03:55:49;;;;;;;10.57;4.87;;;;;;;3.76;100.00;99574.91;3889591;75;396146;-78
2021/03/04 04:01:10;;;;;;;7.87;6.27;;;;;;;3.79;100.00;99572.87;3889772;75;393952;-78
2021/03/04 04:06:32;;;;;;;7.70;6.50;;;;;;;3.68;100.00;99570.38;3889971;75;388768;-78
2021/03/04 04:11:53;;;;;;;15.53;6.27;;;;;;;3.80;100.00;99557.55;3814298;77;400223;-80
2021/03/04 04:17:15;;;;;;;12.43;7.50;;;;;;;3.82;100.00;99551.75;3814565;77;396075;-77
2021/03/04 04:22:36;;;;;;;11.77;6.87;;;;;;;3.59;100.00;99548.76;3814385;76;396158;-77
2021/03/04 04:27:58;;;;;;;7.03;6.43;;;;;;;3.36;100.00;99537.33;3814963;77;396122;-77
2021/03/04 04:33:19;;;;;;;13.10;8.63;;;;;;;3.26;100.00;99540.48;3814131;77;400219;-77
2021/03/04 04:38:40;;;;;;;15.80;6.40;;;;;;;3.48;100.00;99534.58;3814256;76;392892;-77
2021/03/04 04:44:01;;;;;;;4.63;3.30;;;;;;;3.25;100.00;99526.12;3814272;77;396112;-77
2021/03/04 04:49:22;;;;;;;9.10;3.00;;;;;;;3.04;100.00;99526.00;3815185;76;396363;-77
2021/03/04 04:54:45;;;;;;;10.43;5.70;;;;;;;3.13;100.00;99531.55;3814520;77;396032;-77
2021/03/04 05:00:09;;;;;;;14.70;5.60;;;;;;;3.12;100.00;99537.33;3814497;76;396087;-77
2021/03/04 05:05:30;;;;;;;12.70;5.47;;;;;;;2.91;100.00;99524.39;3814326;76;396090;-80
2021/03/04 05:10:51;;;;;;;13.53;5.93;;;;;;;2.77;100.00;99510.34;3890365;75;396370;-78
2021/03/04 05:16:13;;;;;;;27.10;8.63;;;;;;;2.93;100.00;99503.69;3921150;75;398521;-77
2021/03/04 05:21:35;;;;;;;6.83;6.20;;;;;;;2.78;100.00;99488.06;3922677;74;396305;-77
2021/03/04 05:26:56;;;;;;;6.57;4.10;;;;;;;2.73;100.00;99492.34;3922039;75;396314;-80
2021/03/04 05:32:18;;;;;;;7.80;3.90;;;;;;;2.75;100.00;99493.58;3923151;74;394285;-77
2021/03/04 05:37:39;;;;;;;16.73;6.77;;;;;;;2.61;100.00;99491.76;3921974;75;396385;-77
2021/03/04 05:43:01;;;;;;;13.13;7.60;;;;;;;2.50;100.00;99489.81;3921361;75;396074;-77
2021/03/04 05:48:23;;;;;;;9.67;6.93;;;;;;;2.56;100.00;99489.82;3922631;74;393984;-78
2021/03/04 05:53:47;;;;;;;9.40;7.70;;;;;;;2.45;100.00;99481.90;3922798;75;393993;-77
2021/03/04 05:59:10;;;;;;;16.17;9.23;;;;;;;2.25;100.00;99473.82;3921749;74;400336;-78
2021/03/04 06:04:31;;;;;;;20.83;5.00;;;;;;;2.05;100.00;99473.29;3922095;74;396120;-77
2021/03/04 06:09:53;;;;;;;4.67;4.27;;;;;;;1.96;100.00;99484.78;3909115;75;396133;-78
2021/03/04 06:15:15;;;;;;;7.00;4.30;;;;;;;1.87;100.00;99479.45;3889344;75;396058;-77
2021/03/04 06:20:41;;;;;;;7.63;4.73;;;;;;;1.88;100.00;99472.09;3889812;75;392149;-77
2021/03/04 06:26:03;;;;;;;21.83;6.77;;;;;;;2.09;100.00;99486.44;3889168;75;396075;-77
2021/03/04 06:31:24;;;;;;;4.50;3.70;;;;;;;1.99;100.00;99477.34;3889197;75;396306;-78
2021/03/04 06:37:06;;;;;;;10.50;5.70;;;;;;;1.89;100.00;99469.06;3889094;75;398370;-77
2021/03/04 06:42:27;;;;;;;8.10;5.83;;;;;;;2.09;100.00;99468.22;3888748;75;390110;-77
2021/03/04 06:47:48;;;;;;;6.37;3.93;;;;;;;2.29;100.00;99470.64;3889371;75;396326;-78
2021/03/04 06:53:17;;;;;;;18.90;8.50;;;;;;;2.33;100.00;99460.14;3888792;75;396073;-78
2021/03/04 06:58:43;;;;;;;12.70;5.50;;;;;;;2.49;100.00;99462.44;3887728;74;398138;-78
2021/03/04 07:04:06;;;;;;;8.80;6.90;;;;;;;2.78;100.00;99463.03;3890848;75;389774;-78
2021/03/04 07:09:27;;;;;;;12.33;7.20;;;;;;;2.92;100.00;99463.48;3888089;75;396089;-78
2021/03/04 07:14:50;;;;;;;11.47;5.97;;;;;;;3.20;100.00;99450.21;3883848;75;398118;-78
2021/03/04 07:20:16;;;;;;;11.87;6.80;;;;;;;3.52;100.00;99447.88;3884225;75;389857;-78
2021/03/04 07:25:38;;;;;;;23.47;6.27;;;;;;;3.68;100.00;99446.02;3883719;75;396388;-78
2021/03/04 07:31:01;;;;;;;13.03;9.27;;;;;;;3.90;100.00;99449.59;3884150;75;392149;-78
2021/03/04 07:36:25;;;;;;;34.03;8.57;;;;;;;4.15;100.00;99445.61;3882896;75;400260;-77
2021/03/04 07:41:47;;;;;;;11.87;8.43;;;;;;;4.47;100.00;99456.19;3883872;75;400237;-77
2021/03/04 07:47:10;;;;;;;21.03;7.60;;;;;;;4.72;100.00;99456.25;3883597;75;395043;-77
2021/03/04 07:52:31;;;;;;;10.00;6.67;;;;;;;5.16;100.00;99461.81;3884382;75;391868;-78
2021/03/04 07:57:52;;;;;;;17.77;7.70;;;;;;;5.49;100.00;99444.64;3883205;75;400212;-78
2021/03/04 08:03:13;;;;;;;19.30;8.77;;;;;;;5.83;100.00;99422.59;3887935;74;400244;-78
2021/03/04 08:08:39;;;;;;;20.93;8.03;;;;;;;6.16;100.00;99435.91;3883163;75;400485;-78
2021/03/04 08:14:04;;;;;;;8.70;7.80;;;;;;;6.76;100.00;99433.69;3895426;75;391935;-78
2021/03/04 08:19:29;;;;;;;26.93;8.10;;;;;;;7.04;100.00;99436.30;3894256;75;400272;-78
2021/03/04 08:24:52;;;;;;;23.80;9.00;;;;;;;7.04;100.00;99436.86;3894657;75;396149;-78
2021/03/04 08:30:15;;;;;;;20.67;8.30;;;;;;;7.21;100.00;99420.73;3894581;75;396125;-77
2021/03/04 08:35:40;;;;;;;10.43;8.13;;;;;;;7.82;100.00;99405.53;3895037;75;397045;-78
2021/03/04 08:41:01;;;;;;;22.47;9.10;;;;;;;8.55;100.00;99389.11;3894345;75;400229;-78
2021/03/04 08:46:22;;;;;;;15.70;8.00;;;;;;;9.24;100.00;99380.03;3894559;75;398326;-78
2021/03/04 08:51:44;;;;;;;12.20;6.73;;;;;;;9.62;100.00;99376.13;3894665;75;398110;-78
2021/03/04 08:57:05;;;;;;;19.47;8.33;;;;;;;10.25;99.11;99371.46;3894551;75;400224;-78
2021/03/04 09:02:28;;;;;;;18.80;9.17;;;;;;;11.04;94.39;99365.77;3894481;75;401476;-78
2021/03/04 09:07:49;;;;;;;26.23;8.50;;;;;;;11.91;87.44;99366.93;3877590;75;397061;-78
2021/03/04 09:13:11;;;;;;;19.97;11.30;;;;;;;11.89;84.46;99362.41;3898365;75;405447;-79
2021/03/04 09:18:34;;;;;;;18.93;10.30;;;;;;;12.57;82.25;99356.28;3889452;74;400230;-78
2021/03/04 09:23:55;;;;;;;17.97;9.60;;;;;;;11.98;78.77;99350.54;3886930;75;401298;-78
2021/03/04 09:29:17;;;;;;;15.90;8.40;;;;;;;11.75;80.70;99333.53;3888940;74;401485;-78
2021/03/04 09:34:41;;;;;;;19.10;8.43;;;;;;;11.92;82.64;99330.67;3886740;75;401177;-78
2021/03/04 09:40:03;;;;;;;10.67;7.37;;;;;;;12.77;67.73;99342.11;3890910;75;391869;-78
2021/03/04 09:45:25;;;;;;;12.07;8.83;;;;;;;13.09;64.31;99326.06;3889350;75;393951;-78
2021/03/04 09:50:55;;;;;;;12.60;7.40;;;;;;;13.79;61.52;99317.16;3889527;74;392844;-78
2021/03/04 09:56:23;;;;;;;21.23;7.30;;;;;;;13.86;61.30;99317.07;3888908;75;392996;-78
2021/03/04 10:01:45;;;;;;;14.27;7.57;;;;;;;13.13;62.15;99311.02;3889089;74;401221;-78
2021/03/04 10:07:14;;;;;;;18.67;9.50;;;;;;;13.19;62.56;99307.22;3888521;75;401221;-79
2021/03/04 10:12:39;;;;;;;15.57;8.27;;;;;;;14.80;58.53;99294.89;3885664;75;394959;-78
2021/03/04 10:18:12;;;;;;;13.20;8.30;;;;;;;15.22;55.51;99292.13;3883631;75;399080;-78
2021/03/04 10:23:33;;;;;;;22.73;7.90;;;;;;;15.20;55.60;99279.91;3882864;75;400204;-78
2021/03/04 10:28:55;;;;;;;16.80;8.33;;;;;;;15.65;52.57;99273.47;3883807;74;396077;-78
2021/03/04 10:34:16;;;;;;;7.97;6.47;;;;;;;16.01;50.15;99261.76;3885395;74;389770;-78
2021/03/04 10:39:38;;;;;;;15.33;7.60;;;;;;;15.85;50.20;99263.11;3883153;74;394015;-78
2021/03/04 10:44:59;;;;;;;9.57;6.37;;;;;;;15.17;50.08;99265.50;3883899;74;394066;-78
2021/03/04 10:50:23;;;;;;;10.00;6.43;;;;;;;14.84;51.80;99256.82;3884032;74;385731;-78
2021/03/04 10:55:44;;;;;;;11.43;5.50;;;;;;;15.90;49.20;99254.30;3883492;74;400204;-78
2021/03/04 11:01:05;;;;;;;6.80;5.53;;;;;;;16.44;46.71;99251.26;3884736;74;383879;-78
2021/03/04 11:06:26;;;;;;;11.67;7.40;;;;;;;15.13;51.09;99252.33;3884103;74;390127;-78
2021/03/04 11:11:48;;;;;;;13.90;6.57;;;;;;;15.39;49.63;99245.29;3890358;74;394263;-79
2021/03/04 11:17:10;;;;;;;13.97;6.57;;;;;;;15.24;50.99;99242.62;3920223;75;394072;-78
2021/03/04 11:22:31;;;;;;;12.57;6.27;;;;;;;15.02;51.26;99222.65;3922358;74;391864;-78
2021/03/04 11:27:52;;;;;;;18.03;6.90;;;;;;;15.90;51.66;99218.23;3921424;74;400480;-78
2021/03/04 11:33:13;;;;;;;14.87;7.30;;;;;;;17.79;47.37;99211.36;3921767;74;400189;-78
2021/03/04 11:38:34;;;;;;;14.27;7.20;;;;;;;16.20;46.78;99195.08;3922007;74;396420;-77
2021/03/04 11:43:55;;;;;;;9.27;6.97;;;;;;;15.92;49.35;99192.20;3923008;74;390154;-77
2021/03/04 11:49:16;;;;;;;15.60;6.63;;;;;;;15.07;51.92;99197.83;3920871;75;393934;-77
2021/03/04 11:54:38;;;;;;;12.03;7.17;;;;;;;14.85;53.11;99182.22;3922747;74;389081;-78
2021/03/04 12:00:01;;;;;;;10.30;7.10;;;;;;;15.22;52.81;99172.95;3922672;74;391898;-77
2021/03/04 12:05:22;;;;;;;12.40;6.70;;;;;;;15.31;51.03;99159.33;3922400;74;394267;-77
2021/03/04 12:10:43;;;;;;;11.37;7.07;;;;;;;15.81;49.52;99148.69;3922522;74;394002;-78
2021/03/04 12:16:06;;;;;;;9.40;7.40;;;;;;;15.95;50.52;99137.23;3892043;74;394239;-77
2021/03/04 12:21:27;;;;;;;11.83;7.53;;;;;;;15.45;50.31;99133.30;3889185;74;400240;-77
2021/03/04 12:26:48;;;;;;;21.27;8.50;;;;;;;14.47;52.84;99122.03;3888935;75;395190;-77
2021/03/04 12:32:10;;;;;;;9.97;6.70;;;;;;;14.98;53.94;99113.91;3887246;75;393951;-78
2021/03/04 12:37:31;;;;;;;9.37;6.70;;;;;;;15.39;51.31;99101.72;3890053;74;390081;-78
2021/03/04 12:42:52;;;;;;;11.90;6.13;;;;;;;15.40;52.11;99092.20;3889508;74;400226;-78
2021/03/04 12:48:13;;;;;;;18.30;7.47;;;;;;;16.14;50.33;99085.80;3890029;74;394031;-78
2021/03/04 12:53:35;;;;;;;17.10;7.90;;;;;;;17.18;47.76;99075.13;3888882;75;398106;-78
2021/03/04 12:58:56;;;;;;;7.47;5.97;;;;;;;18.10;44.58;99064.00;3890206;74;388973;-77
2021/03/04 13:04:18;;;;;;;13.63;8.50;;;;;;;17.21;46.45;99049.20;3889262;74;391904;-78
2021/03/04 13:09:40;;;;;;;14.63;7.10;;;;;;;18.45;42.97;99030.94;3889759;74;389949;-78
2021/03/04 13:15:05;;;;;;;14.37;8.10;;;;;;;18.68;42.41;99022.75;3908739;74;400525;-78
2021/03/04 13:20:26;;;;;;;11.90;7.03;;;;;;;18.10;44.83;99020.25;3922145;75;400232;-78
2021/03/04 13:25:47;;;;;;;14.17;7.43;;;;;;;17.32;45.35;99017.72;3922833;74;392335;-78
2021/03/04 13:31:08;;;;;;;12.80;7.63;;;;;;;17.40;44.95;99017.66;3919455;75;400239;-78
2021/03/04 13:36:29;;;;;;;12.43;6.87;;;;;;;17.59;45.49;99005.52;3922486;74;400556;-78
2021/03/04 13:41:51;;;;;;;17.07;8.33;;;;;;;16.68;46.27;99003.39;3922020;74;389886;-78
2021/03/04 13:47:12;;;;;;;10.87;6.63;;;;;;;16.66;47.26;98991.96;3920400;75;398108;-78
2021/03/04 13:52:33;;;;;;;13.67;7.10;;;;;;;16.66;46.48;98995.33;3922054;74;394802;-78
2021/03/04 13:57:55;;;;;;;19.87;8.40;;;;;;;17.00;46.34;98985.94;3921589;74;400233;-78
2021/03/04 14:03:16;;;;;;;14.60;7.10;;;;;;;16.81;45.86;98988.92;3922349;74;393984;-77
2021/03/04 14:08:37;;;;;;;11.03;7.30;;;;;;;16.81;46.85;98979.97;3922299;75;394299;-78
2021/03/04 14:14:00;;;;;;;13.83;8.13;;;;;;;17.12;45.75;98983.76;3921732;74;400255;-78
2021/03/04 14:19:21;;;;;;;20.17;8.83;;;;;;;17.11;45.57;98973.09;3919787;75;400278;-78
2021/03/04 14:24:42;;;;;;;18.67;7.90;;;;;;;17.33;45.84;98967.83;3921875;74;400272;-77
2021/03/04 14:30:05;;;;;;;14.40;8.20;;;;;;;17.49;45.63;98964.92;3921706;74;400277;-77
2021/03/04 14:35:26;;;;;;;17.97;8.30;;;;;;;17.15;45.87;98954.31;3921393;75;400239;-77
2021/03/04 14:40:48;;;;;;;13.23;9.10;;;;;;;16.92;45.99;98952.64;3921781;74;393966;-78
2021/03/04 14:46:10;;;;;;;17.53;7.97;;;;;;;16.62;46.19;98946.06;3921129;74;400300;-78
2021/03/04 14:51:31;;;;;;;17.53;9.13;;;;;;;16.24;47.67;98950.12;3922076;74;393991;-78
2021/03/04 14:56:52;;;;;;;15.27;8.17;;;;;;;15.72;49.35;98938.30;3921727;74;400196;-78
2021/03/04 15:02:13;;;;;;;13.87;8.50;;;;;;;15.54;49.73;98936.00;3921644;74;396038;-77
2021/03/04 15:07:34;;;;;;;17.10;8.17;;;;;;;15.13;51.85;98937.20;3901347;74;400553;-77
2021/03/04 15:12:56;;;;;;;12.77;7.67;;;;;;;14.78;53.33;98935.88;3880582;74;394023;-78
2021/03/04 15:18:17;;;;;;;15.20;9.13;;;;;;;14.78;54.10;98930.95;3850571;74;392148;-77
2021/03/04 15:23:39;;;;;;;11.63;7.40;;;;;;;15.38;52.03;98925.55;3850936;76;400205;-77
2021/03/04 15:29:01;;;;;;;18.50;7.83;;;;;;;14.98;52.43;98926.11;3850260;75;400564;-78
2021/03/04 15:34:24;;;;;;;16.53;8.30;;;;;;;14.73;53.89;98934.22;3850270;75;400466;-78
2021/03/04 15:39:45;;;;;;;23.83;9.27;;;;;;;14.68;53.65;98925.05;3853716;74;396035;-78
2021/03/04 15:45:07;;;;;;;13.43;7.00;;;;;;;14.49;54.78;98932.78;3851078;74;394050;-78
2021/03/04 15:50:29;;;;;;;32.60;9.40;;;;;;;14.24;54.73;98935.30;3851078;74;400201;-78
2021/03/04 15:55:50;;;;;;;25.93;10.83;;;;;;;13.97;56.41;98927.70;3850853;74;394927;-78
2021/03/04 16:01:11;;;;;;;20.73;9.80;;;;;;;13.80;57.13;98916.41;3850138;74;401198;-78
2021/03/04 16:06:32;;;;;;;16.60;9.10;;;;;;;13.62;58.41;98914.58;3849143;75;401214;-78
2021/03/04 16:11:53;;;;;;;19.83;8.50;;;;;;;13.46;59.15;98928.11;3805695;76;396027;-78
2021/03/04 16:17:14;;;;;;;22.60;10.40;;;;;;;13.32;60.44;98923.61;3811269;75;400195;-78
2021/03/04 16:22:41;;;;;;;18.03;9.80;;;;;;;13.23;61.12;98918.45;3812161;76;397048;-78
2021/03/04 16:27:58;;;;;;;18.97;8.60;;;;;;;12.99;62.04;98925.94;3811913;76;401438;-78
2021/03/04 16:33:19;;;;;;;22.57;9.07;;;;;;;12.92;63.66;98925.29;3811858;76;401218;-79
2021/03/04 16:38:40;;;;;;;18.10;11.07;;;;;;;12.61;70.55;98938.91;3811882;76;401174;-81
2021/03/04 16:44:02;;;;;;;17.40;10.43;;;;;;;11.87;82.11;98944.42;3798026;76;392843;-81
2021/03/04 16:49:24;;;;;;;18.57;9.80;;;;;;;11.51;87.90;98950.84;3812154;76;401188;-81
2021/03/04 16:54:45;;;;;;;18.50;9.83;;;;;;;11.18;91.99;98960.41;3811847;76;400250;-81
2021/03/04 17:00:09;;;;;;;10.27;7.63;;;;;;;10.84;100.00;98978.74;3812936;76;394949;-80
2021/03/04 17:05:30;;;;;;;16.13;8.53;;;;;;;10.39;100.00;98974.88;3812195;76;401176;-81
2021/03/04 17:10:52;;;;;;;18.33;7.60;;;;;;;10.00;100.00;98955.63;3812082;76;401240;-80
2021/03/04 17:16:13;;;;;;;14.30;7.47;;;;;;;9.98;100.00;98946.98;3812503;76;391915;-80
2021/03/04 17:21:34;;;;;;;48.83;9.77;;;;;;;10.00;100.00;98947.38;3812752;76;390794;-80
2021/03/04 17:26:56;;;;;;;17.53;8.50;;;;;;;9.86;100.00;98950.92;3811837;76;400274;-79
2021/03/04 17:32:17;;;;;;;14.10;8.10;;;;;;;9.80;100.00;98940.73;3811741;76;401282;-79
2021/03/04 17:37:38;;;;;;;15.90;8.17;;;;;;;9.77;100.00;98953.91;3812624;76;390760;-79
2021/03/04 17:43:00;;;;;;;17.40;7.30;;;;;;;9.69;100.00;98954.50;3811896;76;401506;-79
2021/03/04 17:48:22;;;;;;;20.30;7.00;;;;;;;9.73;100.00;98957.24;3812698;76;396087;-79
2021/03/04 17:53:43;;;;;;;12.37;6.50;;;;;;;9.69;100.00;98953.13;3812609;76;396296;-78
2021/03/04 17:59:05;;;;;;;14.53;8.70;;;;;;;9.77;100.00;98953.91;3812569;76;390796;-78
2021/03/04 18:04:27;;;;;;;10.73;6.40;;;;;;;9.53;100.00;98956.09;3813190;76;383867;-79
2021/03/04 18:09:48;;;;;;;17.20;9.70;;;;;;;9.42;100.00;98940.81;3812243;76;394939;-79
2021/03/04 18:15:10;;;;;;;7.03;4.40;;;;;;;9.30;100.00;98941.24;3812850;76;390747;-78
2021/03/04 18:20:31;;;;;;;12.97;5.10;;;;;;;9.04;100.00;98943.82;3812470;76;395003;-79
2021/03/04 18:25:52;;;;;;;12.53;7.60;;;;;;;9.10;100.00;98935.95;3812457;76;395287;-78
2021/03/04 18:31:14;;;;;;;9.63;8.20;;;;;;;8.98;100.00;98919.30;3813437;76;390856;-79
2021/03/04 18:36:35;;;;;;;8.80;5.67;;;;;;;9.14;100.00;98914.80;3813017;76;396394;-78
2021/03/04 18:41:57;;;;;;;13.60;6.60;;;;;;;9.20;100.00;98915.95;3812592;76;399077;-78
2021/03/04 18:47:19;;;;;;;8.37;5.53;;;;;;;9.05;100.00;98908.92;3813090;76;390795;-78
2021/03/04 18:52:42;;;;;;;20.27;7.60;;;;;;;9.03;100.00;98900.29;3812210;76;396260;-78
2021/03/04 18:58:03;;;;;;;7.00;5.77;;;;;;;9.19;100.00;98908.33;3812948;76;396120;-78
2021/03/04 19:03:25;;;;;;;14.03;4.97;;;;;;;9.00;100.00;98920.30;3812227;76;397002;-82
2021/03/04 19:08:46;;;;;;;6.97;3.83;;;;;;;8.31;100.00;98934.71;3812626;76;397084;-81
2021/03/04 19:14:07;;;;;;;7.10;2.97;;;;;;;7.30;100.00;98935.58;3812458;76;396028;-81
2021/03/04 19:19:28;;;;;;;2.13;1.73;;;;;;;6.87;100.00;98939.16;3785624;76;396590;-82
2021/03/04 19:24:49;;;;;;;1.87;1.33;;;;;;;6.79;100.00;98943.55;3777999;76;396091;-82
2021/03/04 19:30:14;;;;;;;2.53;2.40;;;;;;;7.01;100.00;98936.52;3777716;76;396171;-82
2021/03/04 19:35:35;;;;;;;1.93;1.10;;;;;;;7.15;100.00;98936.62;3778804;76;388670;-82
2021/03/04 19:40:56;;;;;;;3.23;1.77;;;;;;;7.20;100.00;98939.02;3777562;76;394217;-82
2021/03/04 19:46:19;;;;;;;3.20;1.70;;;;;;;7.19;100.00;98941.55;3777620;76;396083;-82
2021/03/04 19:51:40;;;;;;;3.60;2.57;;;;;;;7.09;100.00;98936.00;3777825;76;396024;-82
2021/03/04 19:57:02;;;;;;;2.03;1.53;;;;;;;7.05;100.00;98929.14;3777773;76;397273;-83
2021/03/04 20:02:25;;;;;;;1.93;1.73;;;;;;;7.08;100.00;98922.12;3777770;77;396373;-83
2021/03/04 20:07:46;;;;;;;3.77;2.30;;;;;;;7.11;100.00;98925.66;3777623;76;397039;-83
2021/03/04 20:13:08;;;;;;;2.57;2.20;;;;;;;7.10;100.00;98923.91;3777859;76;396091;-83
2021/03/04 20:18:29;;;;;;;3.53;1.47;;;;;;;7.05;100.00;98929.14;3796677;76;396995;-83
2021/03/04 20:23:52;;;;;;;2.90;1.20;;;;;;;7.23;100.00;98940.41;3817858;76;396186;-83
2021/03/04 20:29:14;;;;;;;1.27;1.17;;;;;;;7.30;100.00;98938.31;3817839;76;393212;-83
2021/03/04 20:34:35;;;;;;;7.70;1.90;;;;;;;7.24;100.00;98948.82;3817600;76;391927;-83
2021/03/04 20:39:56;;;;;;;4.63;2.57;;;;;;;7.15;100.00;98957.94;3817467;76;397050;-82
2021/03/04 20:45:18;;;;;;;4.63;2.73;;;;;;;7.13;100.00;98955.38;3817411;76;397073;-82
2021/03/04 20:50:40;;;;;;;1.37;1.27;;;;;;;7.16;100.00;98964.98;3817988;76;392897;-81
2021/03/04 20:56:01;;;;;;;1.90;1.40;;;;;;;7.21;100.00;98967.35;3817626;75;394988;-81
2021/03/04 21:01:24;;;;;;;7.87;1.70;;;;;;;7.32;100.00;98966.86;3817639;76;397014;-81
2021/03/04 21:06:45;;;;;;;3.03;2.80;;;;;;;7.44;100.00;98969.86;3817638;76;396997;-81
2021/03/04 21:12:07;;;;;;;5.47;3.40;;;;;;;7.43;100.00;98980.61;3817908;76;397035;-81
2021/03/04 21:17:29;;;;;;;4.73;3.90;;;;;;;7.42;100.00;98981.77;3817414;76;397017;-81
2021/03/04 21:22:50;;;;;;;3.73;2.10;;;;;;;7.42;100.00;98985.88;3812302;76;397085;-81
2021/03/04 21:28:11;;;;;;;10.87;5.40;;;;;;;7.20;100.00;98988.26;3813056;77;396152;-82
2021/03/04 21:33:33;;;;;;;8.07;3.93;;;;;;;7.25;100.00;99003.75;3813120;76;396144;-82
2021/03/04 21:38:55;;;;;;;10.43;6.03;;;;;;;7.15;100.00;98998.16;3812709;76;394990;-83
2021/03/04 21:44:16;;;;;;;19.00;3.97;;;;;;;7.06;100.00;99005.13;3813125;76;389807;-82
2021/03/04 21:49:37;;;;;;;5.70;3.40;;;;;;;6.86;100.00;99020.20;3812541;76;397098;-82
2021/03/04 21:54:59;;;;;;;8.60;5.13;;;;;;;6.86;100.00;99020.20;3812958;76;397381;-82
2021/03/04 22:00:21;;;;;;;4.87;4.23;;;;;;;6.75;100.00;99011.09;3812334;76;397072;-81
2021/03/04 22:05:42;;;;;;;4.13;3.73;;;;;;;6.75;100.00;99035.10;3812399;76;396336;-81
2021/03/04 22:11:04;;;;;;;4.57;3.60;;;;;;;6.78;100.00;99033.00;3812504;76;396080;-82
2021/03/04 22:16:26;;;;;;;6.73;4.23;;;;;;;6.71;100.00;99025.29;3812646;76;397002;-82
2021/03/04 22:21:47;;;;;;;7.23;3.47;;;;;;;6.70;100.00;99034.68;3817243;76;397001;-82
2021/03/04 22:27:08;;;;;;;13.67;4.97;;;;;;;6.72;100.00;99039.17;3818067;76;396083;-81
2021/03/04 22:32:30;;;;;;;4.90;4.30;;;;;;;6.57;100.00;99046.45;3817221;76;396095;-81
2021/03/04 22:37:51;;;;;;;7.40;4.77;;;;;;;6.60;100.00;99055.84;3818299;76;396071;-81
2021/03/04 22:43:12;;;;;;;5.43;4.80;;;;;;;6.48;100.00;99056.08;3817308;76;396312;-81
2021/03/04 22:48:34;;;;;;;4.83;4.43;;;;;;;6.42;100.00;99058.95;3817090;76;396995;-82
2021/03/04 22:53:56;;;;;;;5.63;1.90;;;;;;;6.34;100.00;99066.84;3817968;76;387740;-82
2021/03/04 22:59:17;;;;;;;5.40;2.57;;;;;;;6.25;100.00;99060.88;3817210;77;396158;-82
2021/03/04 23:04:38;;;;;;;3.33;2.97;;;;;;;6.25;100.00;99069.66;3818286;76;394251;-81
2021/03/04 23:10:00;;;;;;;5.30;2.20;;;;;;;6.11;100.00;99080.38;3818016;76;396536;-82
2021/03/04 23:15:22;;;;;;;3.50;2.20;;;;;;;6.05;100.00;99088.13;3817353;76;396120;-82
2021/03/04 23:20:45;;;;;;;8.90;5.80;;;;;;;5.89;100.00;99097.06;3815138;76;396086;-82
2021/03/04 23:26:06;;;;;;;2.03;1.93;;;;;;;5.45;100.00;99103.91;3812224;76;391932;-82
2021/03/04 23:31:27;;;;;;;3.60;2.10;;;;;;;5.18;100.00;99115.91;3812552;76;396073;-82
2021/03/04 23:36:49;;;;;;;1.33;1.10;;;;;;;5.06;100.00;99117.45;3813032;76;389852;-82
2021/03/04 23:42:11;;;;;;;4.20;1.13;;;;;;;4.83;100.00;99131.05;3813170;76;383587;-82
2021/03/04 23:47:32;;;;;;;1.03;0.93;;;;;;;4.61;100.00;99130.20;3813562;76;391855;-81
2021/03/04 23:52:53;;;;;;;1.70;1.43;;;;;;;4.40;100.00;99137.95;3812874;76;394150;-81
2021/03/04 23:58:15;;;;;;;1.37;1.13;;;;;;;4.36;100.00;99146.02;3813032;76;396301;-81
